Terminal Aerodrome Forecast
Issued by NWS Austin/San Antonio, TX

Home | Current Version | Previous Version | Text Only | Print | Product List | Glossary On
Versions: 1 2 3 4 5 6 7 8 9 10 11 12 13 14 15 16 17 18
776
FTUS44 KEWX 031347 AAA
TAFAUS
TAF AMD
KAUS 031347Z 0314/0418 02012KT 5SM -RA BR BKN010 OVC030
      TEMPO 0314/0317 3SM RA BR BKN007
     FM031700 02012KT 5SM -RA BR OVC008
     FM041000 36010KT 4SM SHRA OVC005=

USA.gov is the U.S. government's official web portal to all federal, state and local government web resources and services.